sensor_id;sensor_type;location;lat;lon;timestamp;P1;durP1;ratioP1;P2;durP2;ratioP2
47113;SDS011;32867;51.556;6.832;2023-08-21T00:02:13;3.55;;;1.30;;
47113;SDS011;32867;51.556;6.832;2023-08-21T00:07:14;3.10;;;1.30;;
47113;SDS011;32867;51.556;6.832;2023-08-21T00:12:15;2.90;;;1.15;;
47113;SDS011;32867;51.556;6.832;2023-08-21T00:17:15;3.75;;;1.30;;
47113;SDS011;32867;51.556;6.832;2023-08-21T00:22:16;3.70;;;1.38;;
47113;SDS011;32867;51.556;6.832;2023-08-21T00:27:17;2.38;;;1.33;;
47113;SDS011;32867;51.556;6.832;2023-08-21T00:32:17;3.97;;;1.40;;
47113;SDS011;32867;51.556;6.832;2023-08-21T00:37:18;3.40;;;1.20;;
47113;SDS011;32867;51.556;6.832;2023-08-21T00:42:19;4.13;;;1.17;;
47113;SDS011;32867;51.556;6.832;2023-08-21T00:47:20;3.95;;;1.20;;
47113;SDS011;32867;51.556;6.832;2023-08-21T00:52:21;4.50;;;1.38;;
47113;SDS011;32867;51.556;6.832;2023-08-21T00:57:22;4.03;;;1.38;;
47113;SDS011;32867;51.556;6.832;2023-08-21T01:02:23;2.38;;;1.00;;
47113;SDS011;32867;51.556;6.832;2023-08-21T01:07:24;3.45;;;1.23;;
47113;SDS011;32867;51.556;6.832;2023-08-21T01:17:35;3.72;;;1.20;;
47113;SDS011;32867;51.556;6.832;2023-08-21T01:22:37;5.43;;;1.42;;
47113;SDS011;32867;51.556;6.832;2023-08-21T01:27:43;2.65;;;1.10;;
47113;SDS011;32867;51.556;6.832;2023-08-21T01:32:53;3.50;;;1.20;;
47113;SDS011;32867;51.556;6.832;2023-08-21T01:38:02;3.10;;;1.40;;
47113;SDS011;32867;51.556;6.832;2023-08-21T01:43:03;4.07;;;1.33;;
47113;SDS011;32867;51.556;6.832;2023-08-21T01:48:04;3.60;;;1.40;;
47113;SDS011;32867;51.556;6.832;2023-08-21T01:53:05;3.83;;;1.40;;
47113;SDS011;32867;51.556;6.832;2023-08-21T01:58:06;2.60;;;1.17;;
47113;SDS011;32867;51.556;6.832;2023-08-21T02:03:06;5.40;;;1.27;;
47113;SDS011;32867;51.556;6.832;2023-08-21T02:08:08;3.38;;;1.20;;
47113;SDS011;32867;51.556;6.832;2023-08-21T02:13:12;3.70;;;1.40;;
47113;SDS011;32867;51.556;6.832;2023-08-21T02:18:12;4.47;;;1.25;;
47113;SDS011;32867;51.556;6.832;2023-08-21T02:23:13;3.50;;;1.33;;
47113;SDS011;32867;51.556;6.832;2023-08-21T02:28:14;3.67;;;1.40;;
47113;SDS011;32867;51.556;6.832;2023-08-21T02:33:14;3.50;;;1.30;;
47113;SDS011;32867;51.556;6.832;2023-08-21T02:38:17;6.05;;;1.40;;
47113;SDS011;32867;51.556;6.832;2023-08-21T02:43:17;3.38;;;1.00;;
47113;SDS011;32867;51.556;6.832;2023-08-21T02:48:18;3.50;;;1.17;;
47113;SDS011;32867;51.556;6.832;2023-08-21T02:53:18;3.92;;;1.35;;
47113;SDS011;32867;51.556;6.832;2023-08-21T02:58:19;4.50;;;1.40;;
47113;SDS011;32867;51.556;6.832;2023-08-21T03:03:20;3.65;;;1.20;;
47113;SDS011;32867;51.556;6.832;2023-08-21T03:08:20;4.05;;;1.38;;
47113;SDS011;32867;51.556;6.832;2023-08-21T03:13:21;4.82;;;1.60;;
47113;SDS011;32867;51.556;6.832;2023-08-21T03:18:22;4.70;;;1.50;;
47113;SDS011;32867;51.556;6.832;2023-08-21T03:23:23;3.28;;;1.40;;
47113;SDS011;32867;51.556;6.832;2023-08-21T03:28:24;3.47;;;1.50;;
47113;SDS011;32867;51.556;6.832;2023-08-21T03:33:24;4.38;;;1.23;;
47113;SDS011;32867;51.556;6.832;2023-08-21T03:38:25;5.07;;;1.40;;
47113;SDS011;32867;51.556;6.832;2023-08-21T03:43:26;3.90;;;1.27;;
47113;SDS011;32867;51.556;6.832;2023-08-21T03:48:26;3.63;;;1.27;;
47113;SDS011;32867;51.556;6.832;2023-08-21T03:53:27;3.97;;;1.58;;
47113;SDS011;32867;51.556;6.832;2023-08-21T03:58:28;4.55;;;1.50;;
47113;SDS011;32867;51.556;6.832;2023-08-21T04:03:28;3.65;;;1.45;;
47113;SDS011;32867;51.556;6.832;2023-08-21T04:08:29;2.80;;;1.33;;
47113;SDS011;32867;51.556;6.832;2023-08-21T04:13:30;3.85;;;1.50;;
47113;SDS011;32867;51.556;6.832;2023-08-21T04:18:31;4.65;;;1.45;;
47113;SDS011;32867;51.556;6.832;2023-08-21T04:23:32;3.63;;;1.30;;
47113;SDS011;32867;51.556;6.832;2023-08-21T04:28:33;2.58;;;1.30;;
47113;SDS011;32867;51.556;6.832;2023-08-21T04:33:35;2.70;;;1.25;;
47113;SDS011;32867;51.556;6.832;2023-08-21T04:38:37;4.10;;;1.25;;
47113;SDS011;32867;51.556;6.832;2023-08-21T04:43:37;3.60;;;1.30;;
47113;SDS011;32867;51.556;6.832;2023-08-21T04:48:40;4.45;;;1.65;;
47113;SDS011;32867;51.556;6.832;2023-08-21T04:53:41;5.65;;;1.20;;
47113;SDS011;32867;51.556;6.832;2023-08-21T04:58:46;3.95;;;1.45;;
47113;SDS011;32867;51.556;6.832;2023-08-21T05:03:48;2.83;;;1.30;;
47113;SDS011;32867;51.556;6.832;2023-08-21T05:08:49;3.33;;;1.30;;
47113;SDS011;32867;51.556;6.832;2023-08-21T05:13:50;4.55;;;1.60;;
47113;SDS011;32867;51.556;6.832;2023-08-21T05:18:54;4.45;;;1.50;;
47113;SDS011;32867;51.556;6.832;2023-08-21T05:23:55;4.30;;;1.52;;
47113;SDS011;32867;51.556;6.832;2023-08-21T05:28:56;3.53;;;1.55;;
47113;SDS011;32867;51.556;6.832;2023-08-21T05:33:56;5.97;;;1.50;;
47113;SDS011;32867;51.556;6.832;2023-08-21T05:38:57;6.90;;;1.75;;
47113;SDS011;32867;51.556;6.832;2023-08-21T05:44:00;4.22;;;1.50;;
47113;SDS011;32867;51.556;6.832;2023-08-21T05:49:01;5.13;;;1.67;;
47113;SDS011;32867;51.556;6.832;2023-08-21T05:54:03;4.60;;;1.50;;
47113;SDS011;32867;51.556;6.832;2023-08-21T05:59:04;4.75;;;1.63;;
47113;SDS011;32867;51.556;6.832;2023-08-21T06:04:04;7.80;;;1.60;;
47113;SDS011;32867;51.556;6.832;2023-08-21T06:09:25;4.30;;;1.70;;
47113;SDS011;32867;51.556;6.832;2023-08-21T06:14:29;5.75;;;1.63;;
47113;SDS011;32867;51.556;6.832;2023-08-21T06:19:33;4.28;;;1.77;;
47113;SDS011;32867;51.556;6.832;2023-08-21T06:24:34;2.72;;;1.38;;
47113;SDS011;32867;51.556;6.832;2023-08-21T06:29:37;5.25;;;1.88;;
47113;SDS011;32867;51.556;6.832;2023-08-21T06:34:40;6.55;;;1.60;;
47113;SDS011;32867;51.556;6.832;2023-08-21T06:39:41;5.97;;;1.80;;
47113;SDS011;32867;51.556;6.832;2023-08-21T06:44:42;5.35;;;1.50;;
47113;SDS011;32867;51.556;6.832;2023-08-21T06:49:42;3.35;;;1.48;;
47113;SDS011;32867;51.556;6.832;2023-08-21T06:54:43;4.80;;;1.70;;
47113;SDS011;32867;51.556;6.832;2023-08-21T06:59:44;5.03;;;1.65;;
47113;SDS011;32867;51.556;6.832;2023-08-21T07:04:45;4.85;;;1.67;;
47113;SDS011;32867;51.556;6.832;2023-08-21T07:09:45;6.65;;;1.70;;
47113;SDS011;32867;51.556;6.832;2023-08-21T07:14:46;4.93;;;1.55;;
47113;SDS011;32867;51.556;6.832;2023-08-21T07:19:47;3.58;;;1.45;;
47113;SDS011;32867;51.556;6.832;2023-08-21T07:24:49;4.45;;;1.50;;
47113;SDS011;32867;51.556;6.832;2023-08-21T07:29:50;4.68;;;1.40;;
47113;SDS011;32867;51.556;6.832;2023-08-21T07:34:53;6.05;;;1.50;;
47113;SDS011;32867;51.556;6.832;2023-08-21T07:39:54;3.40;;;1.38;;
47113;SDS011;32867;51.556;6.832;2023-08-21T07:44:57;3.60;;;1.42;;
47113;SDS011;32867;51.556;6.832;2023-08-21T07:49:58;4.55;;;1.42;;
47113;SDS011;32867;51.556;6.832;2023-08-21T07:54:59;5.63;;;1.75;;
47113;SDS011;32867;51.556;6.832;2023-08-21T08:00:00;4.22;;;1.50;;
47113;SDS011;32867;51.556;6.832;2023-08-21T08:05:01;2.90;;;1.20;;
47113;SDS011;32867;51.556;6.832;2023-08-21T08:10:03;4.70;;;1.40;;
47113;SDS011;32867;51.556;6.832;2023-08-21T08:15:04;3.17;;;1.13;;
47113;SDS011;32867;51.556;6.832;2023-08-21T08:20:05;4.22;;;1.60;;
47113;SDS011;32867;51.556;6.832;2023-08-21T08:25:06;7.60;;;1.77;;
47113;SDS011;32867;51.556;6.832;2023-08-21T08:30:07;3.50;;;1.30;;
47113;SDS011;32867;51.556;6.832;2023-08-21T08:35:08;5.20;;;1.58;;
47113;SDS011;32867;51.556;6.832;2023-08-21T08:40:12;6.32;;;1.50;;
47113;SDS011;32867;51.556;6.832;2023-08-21T08:45:13;3.63;;;1.20;;
47113;SDS011;32867;51.556;6.832;2023-08-21T08:50:14;4.82;;;1.50;;
47113;SDS011;32867;51.556;6.832;2023-08-21T08:55:16;5.25;;;1.55;;
47113;SDS011;32867;51.556;6.832;2023-08-21T09:00:17;3.85;;;1.40;;
47113;SDS011;32867;51.556;6.832;2023-08-21T09:05:17;3.17;;;1.25;;
47113;SDS011;32867;51.556;6.832;2023-08-21T09:10:18;3.45;;;1.30;;
47113;SDS011;32867;51.556;6.832;2023-08-21T09:15:19;6.10;;;1.40;;
47113;SDS011;32867;51.556;6.832;2023-08-21T09:20:20;4.82;;;1.20;;
47113;SDS011;32867;51.556;6.832;2023-08-21T09:25:23;4.05;;;1.08;;
47113;SDS011;32867;51.556;6.832;2023-08-21T09:30:26;4.80;;;1.65;;
47113;SDS011;32867;51.556;6.832;2023-08-21T09:35:27;4.20;;;1.52;;
47113;SDS011;32867;51.556;6.832;2023-08-21T09:40:27;3.88;;;1.40;;
47113;SDS011;32867;51.556;6.832;2023-08-21T09:45:28;3.70;;;1.30;;
47113;SDS011;32867;51.556;6.832;2023-08-21T09:50:29;3.72;;;1.25;;
47113;SDS011;32867;51.556;6.832;2023-08-21T09:55:31;4.35;;;1.23;;
47113;SDS011;32867;51.556;6.832;2023-08-21T10:00:34;6.10;;;1.50;;
47113;SDS011;32867;51.556;6.832;2023-08-21T10:05:38;3.08;;;1.20;;
47113;SDS011;32867;51.556;6.832;2023-08-21T10:10:39;4.55;;;1.40;;
47113;SDS011;32867;51.556;6.832;2023-08-21T10:15:40;3.30;;;1.30;;
47113;SDS011;32867;51.556;6.832;2023-08-21T10:20:41;4.53;;;1.30;;
47113;SDS011;32867;51.556;6.832;2023-08-21T10:25:42;3.67;;;1.25;;
47113;SDS011;32867;51.556;6.832;2023-08-21T10:30:43;2.55;;;1.20;;
47113;SDS011;32867;51.556;6.832;2023-08-21T10:35:43;5.05;;;1.63;;
47113;SDS011;32867;51.556;6.832;2023-08-21T10:46:04;3.13;;;1.20;;
47113;SDS011;32867;51.556;6.832;2023-08-21T10:51:06;4.20;;;1.40;;
47113;SDS011;32867;51.556;6.832;2023-08-21T10:56:08;3.55;;;1.38;;
47113;SDS011;32867;51.556;6.832;2023-08-21T11:01:09;3.40;;;1.40;;
47113;SDS011;32867;51.556;6.832;2023-08-21T11:06:12;3.25;;;1.33;;
47113;SDS011;32867;51.556;6.832;2023-08-21T11:11:13;7.30;;;1.90;;
47113;SDS011;32867;51.556;6.832;2023-08-21T11:16:16;3.90;;;1.38;;
47113;SDS011;32867;51.556;6.832;2023-08-21T11:21:17;2.97;;;1.20;;
47113;SDS011;32867;51.556;6.832;2023-08-21T11:26:17;4.25;;;1.63;;
47113;SDS011;32867;51.556;6.832;2023-08-21T11:31:18;5.35;;;1.35;;
47113;SDS011;32867;51.556;6.832;2023-08-21T11:36:20;4.53;;;1.42;;
47113;SDS011;32867;51.556;6.832;2023-08-21T11:41:20;4.22;;;1.40;;
47113;SDS011;32867;51.556;6.832;2023-08-21T11:46:21;3.65;;;1.35;;
47113;SDS011;32867;51.556;6.832;2023-08-21T11:51:21;5.72;;;1.85;;
47113;SDS011;32867;51.556;6.832;2023-08-21T11:56:22;4.35;;;1.50;;
47113;SDS011;32867;51.556;6.832;2023-08-21T12:01:28;4.95;;;1.50;;
47113;SDS011;32867;51.556;6.832;2023-08-21T12:06:33;4.65;;;1.63;;
47113;SDS011;32867;51.556;6.832;2023-08-21T12:11:34;3.40;;;1.15;;
47113;SDS011;32867;51.556;6.832;2023-08-21T12:16:35;3.95;;;1.30;;
47113;SDS011;32867;51.556;6.832;2023-08-21T12:21:36;2.45;;;1.23;;
47113;SDS011;32867;51.556;6.832;2023-08-21T12:26:37;8.13;;;1.88;;
47113;SDS011;32867;51.556;6.832;2023-08-21T12:31:38;6.32;;;1.63;;
47113;SDS011;32867;51.556;6.832;2023-08-21T12:36:39;6.90;;;1.92;;
47113;SDS011;32867;51.556;6.832;2023-08-21T12:41:39;3.70;;;1.40;;
47113;SDS011;32867;51.556;6.832;2023-08-21T12:46:40;3.13;;;1.33;;
47113;SDS011;32867;51.556;6.832;2023-08-21T12:51:41;9.52;;;1.90;;
47113;SDS011;32867;51.556;6.832;2023-08-21T12:56:41;3.40;;;1.40;;
47113;SDS011;32867;51.556;6.832;2023-08-21T13:01:42;4.15;;;1.55;;
47113;SDS011;32867;51.556;6.832;2023-08-21T13:06:42;5.30;;;1.73;;
47113;SDS011;32867;51.556;6.832;2023-08-21T13:11:43;4.25;;;1.40;;
47113;SDS011;32867;51.556;6.832;2023-08-21T13:16:44;3.30;;;1.20;;
47113;SDS011;32867;51.556;6.832;2023-08-21T13:21:44;4.05;;;1.50;;
47113;SDS011;32867;51.556;6.832;2023-08-21T13:26:45;4.97;;;1.38;;
47113;SDS011;32867;51.556;6.832;2023-08-21T13:31:46;5.05;;;1.90;;
47113;SDS011;32867;51.556;6.832;2023-08-21T13:36:47;2.97;;;1.30;;
47113;SDS011;32867;51.556;6.832;2023-08-21T13:41:48;4.22;;;1.48;;
47113;SDS011;32867;51.556;6.832;2023-08-21T13:46:50;3.63;;;1.45;;
47113;SDS011;32867;51.556;6.832;2023-08-21T13:51:51;5.45;;;1.40;;
47113;SDS011;32867;51.556;6.832;2023-08-21T13:56:51;5.40;;;1.63;;
47113;SDS011;32867;51.556;6.832;2023-08-21T14:01:52;5.07;;;1.77;;
47113;SDS011;32867;51.556;6.832;2023-08-21T14:06:53;4.03;;;1.60;;
47113;SDS011;32867;51.556;6.832;2023-08-21T14:11:53;3.47;;;1.50;;
47113;SDS011;32867;51.556;6.832;2023-08-21T14:16:54;4.30;;;1.58;;
47113;SDS011;32867;51.556;6.832;2023-08-21T14:21:55;4.10;;;1.65;;
47113;SDS011;32867;51.556;6.832;2023-08-21T14:26:55;5.00;;;1.63;;
47113;SDS011;32867;51.556;6.832;2023-08-21T14:31:57;4.45;;;1.60;;
47113;SDS011;32867;51.556;6.832;2023-08-21T14:36:59;6.90;;;1.65;;
47113;SDS011;32867;51.556;6.832;2023-08-21T14:42:00;3.97;;;1.55;;
47113;SDS011;32867;51.556;6.832;2023-08-21T14:47:01;4.65;;;1.50;;
47113;SDS011;32867;51.556;6.832;2023-08-21T14:52:02;6.03;;;1.90;;
47113;SDS011;32867;51.556;6.832;2023-08-21T14:57:03;3.58;;;1.45;;
47113;SDS011;32867;51.556;6.832;2023-08-21T15:02:03;3.50;;;1.40;;
47113;SDS011;32867;51.556;6.832;2023-08-21T15:07:04;4.88;;;1.40;;
47113;SDS011;32867;51.556;6.832;2023-08-21T15:12:05;3.38;;;1.40;;
47113;SDS011;32867;51.556;6.832;2023-08-21T15:17:06;3.80;;;1.52;;
47113;SDS011;32867;51.556;6.832;2023-08-21T15:22:06;3.35;;;1.65;;
47113;SDS011;32867;51.556;6.832;2023-08-21T15:27:07;3.33;;;1.48;;
47113;SDS011;32867;51.556;6.832;2023-08-21T15:32:08;3.35;;;1.60;;
47113;SDS011;32867;51.556;6.832;2023-08-21T15:37:08;4.05;;;1.60;;
47113;SDS011;32867;51.556;6.832;2023-08-21T15:42:09;3.90;;;1.70;;
47113;SDS011;32867;51.556;6.832;2023-08-21T15:47:10;3.65;;;1.70;;
47113;SDS011;32867;51.556;6.832;2023-08-21T15:52:10;3.63;;;1.83;;
47113;SDS011;32867;51.556;6.832;2023-08-21T15:57:11;3.38;;;1.52;;
47113;SDS011;32867;51.556;6.832;2023-08-21T16:02:12;3.75;;;1.80;;
47113;SDS011;32867;51.556;6.832;2023-08-21T16:07:13;3.58;;;1.70;;
47113;SDS011;32867;51.556;6.832;2023-08-21T16:12:13;4.03;;;2.03;;
47113;SDS011;32867;51.556;6.832;2023-08-21T16:17:14;4.40;;;1.73;;
47113;SDS011;32867;51.556;6.832;2023-08-21T16:22:15;3.60;;;1.55;;
47113;SDS011;32867;51.556;6.832;2023-08-21T16:27:15;5.43;;;1.80;;
47113;SDS011;32867;51.556;6.832;2023-08-21T16:32:16;4.32;;;1.83;;
47113;SDS011;32867;51.556;6.832;2023-08-21T16:37:16;3.33;;;1.52;;
47113;SDS011;32867;51.556;6.832;2023-08-21T16:42:17;3.15;;;1.50;;
47113;SDS011;32867;51.556;6.832;2023-08-21T16:47:18;3.97;;;1.90;;
47113;SDS011;32867;51.556;6.832;2023-08-21T16:52:18;3.20;;;1.65;;
47113;SDS011;32867;51.556;6.832;2023-08-21T16:57:20;3.40;;;1.60;;
47113;SDS011;32867;51.556;6.832;2023-08-21T17:02:20;4.18;;;1.92;;
47113;SDS011;32867;51.556;6.832;2023-08-21T17:07:21;3.88;;;1.63;;
47113;SDS011;32867;51.556;6.832;2023-08-21T17:12:22;3.78;;;1.73;;
47113;SDS011;32867;51.556;6.832;2023-08-21T17:17:23;4.15;;;1.70;;
47113;SDS011;32867;51.556;6.832;2023-08-21T17:22:23;3.55;;;1.70;;
47113;SDS011;32867;51.556;6.832;2023-08-21T17:27:24;3.65;;;1.75;;
47113;SDS011;32867;51.556;6.832;2023-08-21T17:32:25;3.85;;;1.50;;
47113;SDS011;32867;51.556;6.832;2023-08-21T17:37:26;3.13;;;1.48;;
47113;SDS011;32867;51.556;6.832;2023-08-21T17:42:27;3.30;;;1.52;;
47113;SDS011;32867;51.556;6.832;2023-08-21T17:47:28;3.38;;;1.67;;
47113;SDS011;32867;51.556;6.832;2023-08-21T17:52:28;3.10;;;1.60;;
47113;SDS011;32867;51.556;6.832;2023-08-21T17:57:29;2.83;;;1.63;;
47113;SDS011;32867;51.556;6.832;2023-08-21T18:02:30;3.25;;;1.70;;
47113;SDS011;32867;51.556;6.832;2023-08-21T18:07:31;3.60;;;2.00;;
47113;SDS011;32867;51.556;6.832;2023-08-21T18:12:32;5.10;;;2.10;;
47113;SDS011;32867;51.556;6.832;2023-08-21T18:17:32;4.53;;;2.10;;
47113;SDS011;32867;51.556;6.832;2023-08-21T18:22:33;2.95;;;1.98;;
47113;SDS011;32867;51.556;6.832;2023-08-21T18:27:33;4.03;;;1.90;;
47113;SDS011;32867;51.556;6.832;2023-08-21T18:32:34;3.05;;;1.70;;
47113;SDS011;32867;51.556;6.832;2023-08-21T18:37:35;5.10;;;2.00;;
47113;SDS011;32867;51.556;6.832;2023-08-21T18:42:36;3.95;;;1.70;;
47113;SDS011;32867;51.556;6.832;2023-08-21T18:47:37;3.58;;;1.70;;
47113;SDS011;32867;51.556;6.832;2023-08-21T18:52:38;3.75;;;1.58;;
47113;SDS011;32867;51.556;6.832;2023-08-21T18:57:39;4.13;;;2.00;;
47113;SDS011;32867;51.556;6.832;2023-08-21T19:02:41;4.93;;;2.03;;
47113;SDS011;32867;51.556;6.832;2023-08-21T19:07:42;4.13;;;1.75;;
47113;SDS011;32867;51.556;6.832;2023-08-21T19:12:43;4.45;;;1.90;;
47113;SDS011;32867;51.556;6.832;2023-08-21T19:17:44;4.88;;;2.08;;
47113;SDS011;32867;51.556;6.832;2023-08-21T19:22:45;3.67;;;1.88;;
47113;SDS011;32867;51.556;6.832;2023-08-21T19:27:46;4.65;;;2.30;;
47113;SDS011;32867;51.556;6.832;2023-08-21T19:32:46;2.78;;;1.90;;
47113;SDS011;32867;51.556;6.832;2023-08-21T19:37:47;3.88;;;1.70;;
47113;SDS011;32867;51.556;6.832;2023-08-21T19:42:48;5.00;;;1.70;;
47113;SDS011;32867;51.556;6.832;2023-08-21T19:47:49;4.57;;;2.00;;
47113;SDS011;32867;51.556;6.832;2023-08-21T19:52:49;4.25;;;1.73;;
47113;SDS011;32867;51.556;6.832;2023-08-21T19:57:50;4.05;;;2.08;;
47113;SDS011;32867;51.556;6.832;2023-08-21T20:02:50;3.97;;;1.95;;
47113;SDS011;32867;51.556;6.832;2023-08-21T20:07:51;3.85;;;1.70;;
47113;SDS011;32867;51.556;6.832;2023-08-21T20:12:52;4.93;;;1.88;;
47113;SDS011;32867;51.556;6.832;2023-08-21T20:17:52;4.22;;;2.08;;
47113;SDS011;32867;51.556;6.832;2023-08-21T20:22:53;2.65;;;1.85;;
47113;SDS011;32867;51.556;6.832;2023-08-21T20:27:54;4.65;;;1.85;;
47113;SDS011;32867;51.556;6.832;2023-08-21T20:32:54;3.65;;;2.15;;
47113;SDS011;32867;51.556;6.832;2023-08-21T20:37:55;6.22;;;2.00;;
47113;SDS011;32867;51.556;6.832;2023-08-21T20:42:56;3.95;;;1.90;;
47113;SDS011;32867;51.556;6.832;2023-08-21T20:47:56;4.18;;;2.20;;
47113;SDS011;32867;51.556;6.832;2023-08-21T20:52:57;5.05;;;2.08;;
47113;SDS011;32867;51.556;6.832;2023-08-21T20:57:58;4.82;;;1.88;;
47113;SDS011;32867;51.556;6.832;2023-08-21T21:02:58;4.57;;;1.80;;
47113;SDS011;32867;51.556;6.832;2023-08-21T21:07:59;5.47;;;1.83;;
47113;SDS011;32867;51.556;6.832;2023-08-21T21:12:59;4.75;;;2.00;;
47113;SDS011;32867;51.556;6.832;2023-08-21T21:18:00;6.30;;;2.20;;
47113;SDS011;32867;51.556;6.832;2023-08-21T21:23:01;4.50;;;2.10;;
47113;SDS011;32867;51.556;6.832;2023-08-21T21:28:02;3.92;;;2.13;;
47113;SDS011;32867;51.556;6.832;2023-08-21T21:33:03;4.60;;;1.88;;
47113;SDS011;32867;51.556;6.832;2023-08-21T21:38:04;3.90;;;1.80;;
47113;SDS011;32867;51.556;6.832;2023-08-21T21:43:05;3.60;;;2.20;;
47113;SDS011;32867;51.556;6.832;2023-08-21T21:48:05;2.97;;;1.75;;
47113;SDS011;32867;51.556;6.832;2023-08-21T21:53:06;5.13;;;2.10;;
47113;SDS011;32867;51.556;6.832;2023-08-21T21:58:06;8.90;;;2.03;;
47113;SDS011;32867;51.556;6.832;2023-08-21T22:03:07;4.88;;;2.03;;
47113;SDS011;32867;51.556;6.832;2023-08-21T22:08:08;5.28;;;2.05;;
47113;SDS011;32867;51.556;6.832;2023-08-21T22:13:08;4.45;;;2.05;;
47113;SDS011;32867;51.556;6.832;2023-08-21T22:18:09;4.82;;;1.80;;
47113;SDS011;32867;51.556;6.832;2023-08-21T22:23:10;3.58;;;1.85;;
47113;SDS011;32867;51.556;6.832;2023-08-21T22:28:11;4.07;;;1.98;;
47113;SDS011;32867;51.556;6.832;2023-08-21T22:33:11;4.38;;;2.10;;
47113;SDS011;32867;51.556;6.832;2023-08-21T22:38:12;3.08;;;1.70;;
47113;SDS011;32867;51.556;6.832;2023-08-21T22:43:13;3.00;;;1.85;;
47113;SDS011;32867;51.556;6.832;2023-08-21T22:48:13;4.63;;;2.10;;
47113;SDS011;32867;51.556;6.832;2023-08-21T22:53:14;5.20;;;1.98;;
47113;SDS011;32867;51.556;6.832;2023-08-21T22:58:15;4.18;;;1.92;;
47113;SDS011;32867;51.556;6.832;2023-08-21T23:03:15;3.50;;;2.05;;
47113;SDS011;32867;51.556;6.832;2023-08-21T23:08:16;3.65;;;1.88;;
47113;SDS011;32867;51.556;6.832;2023-08-21T23:13:16;4.30;;;2.10;;
47113;SDS011;32867;51.556;6.832;2023-08-21T23:18:17;3.25;;;1.88;;
47113;SDS011;32867;51.556;6.832;2023-08-21T23:23:18;3.58;;;1.88;;
47113;SDS011;32867;51.556;6.832;2023-08-21T23:28:18;3.53;;;1.85;;
47113;SDS011;32867;51.556;6.832;2023-08-21T23:33:19;5.32;;;2.20;;
47113;SDS011;32867;51.556;6.832;2023-08-21T23:38:21;5.20;;;2.40;;
47113;SDS011;32867;51.556;6.832;2023-08-21T23:43:22;3.00;;;2.05;;
47113;SDS011;32867;51.556;6.832;2023-08-21T23:48:22;5.93;;;2.45;;
47113;SDS011;32867;51.556;6.832;2023-08-21T23:53:23;4.57;;;2.22;;
47113;SDS011;32867;51.556;6.832;2023-08-21T23:58:24;3.60;;;1.95;;
